sensor_id;sensor_type;location;lat;lon;timestamp;temperature;humidity
69162;DHT22;56269;51.738;21.652;2023-12-22T00:01:55;5.15;96.06
69162;DHT22;56269;51.738;21.652;2023-12-22T00:04:21;5.15;95.63
69162;DHT22;56269;51.738;21.652;2023-12-22T00:06:47;5.13;95.50
69162;DHT22;56269;51.738;21.652;2023-12-22T00:09:15;5.08;95.62
69162;DHT22;56269;51.738;21.652;2023-12-22T00:11:41;4.98;96.01
69162;DHT22;56269;51.738;21.652;2023-12-22T00:14:07;4.86;96.39
69162;DHT22;56269;51.738;21.652;2023-12-22T00:16:33;4.84;96.65
69162;DHT22;56269;51.738;21.652;2023-12-22T00:19:02;4.79;97.01
69162;DHT22;56269;51.738;21.652;2023-12-22T00:21:28;4.80;97.18
69162;DHT22;56269;51.738;21.652;2023-12-22T00:23:54;4.86;97.27
69162;DHT22;56269;51.738;21.652;2023-12-22T00:26:20;4.97;94.81
69162;DHT22;56269;51.738;21.652;2023-12-22T00:28:47;4.90;95.03
69162;DHT22;56269;51.738;21.652;2023-12-22T00:31:13;4.77;96.60
69162;DHT22;56269;51.738;21.652;2023-12-22T00:33:39;4.69;97.74
69162;DHT22;56269;51.738;21.652;2023-12-22T00:36:05;4.67;98.26
69162;DHT22;56269;51.738;21.652;2023-12-22T00:38:32;4.63;98.40
69162;DHT22;56269;51.738;21.652;2023-12-22T00:40:58;4.63;98.66
69162;DHT22;56269;51.738;21.652;2023-12-22T00:43:24;4.53;98.94
69162;DHT22;56269;51.738;21.652;2023-12-22T00:45:50;4.50;98.52
69162;DHT22;56269;51.738;21.652;2023-12-22T00:48:16;4.52;98.23
69162;DHT22;56269;51.738;21.652;2023-12-22T00:50:43;4.52;98.46
69162;DHT22;56269;51.738;21.652;2023-12-22T00:53:10;4.48;98.24
69162;DHT22;56269;51.738;21.652;2023-12-22T00:55:36;4.48;97.61
69162;DHT22;56269;51.738;21.652;2023-12-22T00:58:02;4.49;97.49
69162;DHT22;56269;51.738;21.652;2023-12-22T01:00:28;4.45;97.22
69162;DHT22;56269;51.738;21.652;2023-12-22T01:02:54;4.53;96.44
69162;DHT22;56269;51.738;21.652;2023-12-22T01:05:20;4.46;96.79
69162;DHT22;56269;51.738;21.652;2023-12-22T01:07:47;4.53;95.59
69162;DHT22;56269;51.738;21.652;2023-12-22T01:10:13;4.52;94.98
69162;DHT22;56269;51.738;21.652;2023-12-22T01:12:39;4.53;94.78
69162;DHT22;56269;51.738;21.652;2023-12-22T01:15:06;4.50;94.86
69162;DHT22;56269;51.738;21.652;2023-12-22T01:17:32;4.46;94.60
69162;DHT22;56269;51.738;21.652;2023-12-22T01:19:58;4.32;94.56
69162;DHT22;56269;51.738;21.652;2023-12-22T01:22:24;4.42;92.86
69162;DHT22;56269;51.738;21.652;2023-12-22T01:24:50;4.28;93.71
69162;DHT22;56269;51.738;21.652;2023-12-22T01:27:17;4.22;93.72
69162;DHT22;56269;51.738;21.652;2023-12-22T01:29:43;4.25;93.10
69162;DHT22;56269;51.738;21.652;2023-12-22T01:32:10;4.29;92.78
69162;DHT22;56269;51.738;21.652;2023-12-22T01:34:36;4.28;92.58
69162;DHT22;56269;51.738;21.652;2023-12-22T01:37:02;4.22;92.96
69162;DHT22;56269;51.738;21.652;2023-12-22T01:39:28;4.12;93.48
69162;DHT22;56269;51.738;21.652;2023-12-22T01:41:54;4.11;92.95
69162;DHT22;56269;51.738;21.652;2023-12-22T01:44:20;3.99;93.79
69162;DHT22;56269;51.738;21.652;2023-12-22T01:46:47;3.99;93.40
69162;DHT22;56269;51.738;21.652;2023-12-22T01:49:14;4.02;93.17
69162;DHT22;56269;51.738;21.652;2023-12-22T01:51:40;4.04;93.03
69162;DHT22;56269;51.738;21.652;2023-12-22T01:54:07;3.97;93.49
69162;DHT22;56269;51.738;21.652;2023-12-22T01:56:33;3.90;93.73
69162;DHT22;56269;51.738;21.652;2023-12-22T01:59:00;3.88;93.87
69162;DHT22;56269;51.738;21.652;2023-12-22T02:01:28;3.70;94.64
69162;DHT22;56269;51.738;21.652;2023-12-22T02:03:54;3.60;95.20
69162;DHT22;56269;51.738;21.652;2023-12-22T02:06:21;3.69;95.02
69162;DHT22;56269;51.738;21.652;2023-12-22T02:08:48;3.67;95.12
69162;DHT22;56269;51.738;21.652;2023-12-22T02:11:14;3.61;95.26
69162;DHT22;56269;51.738;21.652;2023-12-22T02:13:42;3.51;95.70
69162;DHT22;56269;51.738;21.652;2023-12-22T02:16:19;3.59;95.29
69162;DHT22;56269;51.738;21.652;2023-12-22T02:18:50;3.59;95.09
69162;DHT22;56269;51.738;21.652;2023-12-22T02:21:19;3.69;94.12
69162;DHT22;56269;51.738;21.652;2023-12-22T02:23:47;3.75;93.22
69162;DHT22;56269;51.738;21.652;2023-12-22T02:26:36;3.97;91.69
69162;DHT22;56269;51.738;21.652;2023-12-22T02:29:08;3.85;92.02
69162;DHT22;56269;51.738;21.652;2023-12-22T02:31:40;3.88;91.59
69162;DHT22;56269;51.738;21.652;2023-12-22T02:34:14;3.77;92.07
69162;DHT22;56269;51.738;21.652;2023-12-22T02:36:42;3.71;91.98
69162;DHT22;56269;51.738;21.652;2023-12-22T02:39:08;3.71;92.10
69162;DHT22;56269;51.738;21.652;2023-12-22T02:41:36;3.74;91.90
69162;DHT22;56269;51.738;21.652;2023-12-22T02:44:03;3.73;91.59
69162;DHT22;56269;51.738;21.652;2023-12-22T02:46:29;3.82;91.20
69162;DHT22;56269;51.738;21.652;2023-12-22T02:48:55;3.82;91.18
69162;DHT22;56269;51.738;21.652;2023-12-22T02:51:21;3.88;91.04
69162;DHT22;56269;51.738;21.652;2023-12-22T02:53:47;3.87;91.09
69162;DHT22;56269;51.738;21.652;2023-12-22T02:56:13;3.95;90.28
69162;DHT22;56269;51.738;21.652;2023-12-22T02:58:39;3.97;90.20
69162;DHT22;56269;51.738;21.652;2023-12-22T03:01:06;3.95;90.21
69162;DHT22;56269;51.738;21.652;2023-12-22T03:03:32;3.92;90.15
69162;DHT22;56269;51.738;21.652;2023-12-22T03:05:58;3.87;90.37
69162;DHT22;56269;51.738;21.652;2023-12-22T03:08:24;3.87;90.44
69162;DHT22;56269;51.738;21.652;2023-12-22T03:10:50;3.99;89.44
69162;DHT22;56269;51.738;21.652;2023-12-22T03:13:16;3.91;90.19
69162;DHT22;56269;51.738;21.652;2023-12-22T03:15:43;4.02;89.29
69162;DHT22;56269;51.738;21.652;2023-12-22T03:18:09;3.97;89.77
69162;DHT22;56269;51.738;21.652;2023-12-22T03:20:35;3.95;89.80
69162;DHT22;56269;51.738;21.652;2023-12-22T03:23:01;4.06;89.11
69162;DHT22;56269;51.738;21.652;2023-12-22T03:25:27;4.02;89.12
69162;DHT22;56269;51.738;21.652;2023-12-22T03:27:53;4.05;89.14
69162;DHT22;56269;51.738;21.652;2023-12-22T03:30:20;4.06;88.99
69162;DHT22;56269;51.738;21.652;2023-12-22T03:32:46;4.14;88.21
69162;DHT22;56269;51.738;21.652;2023-12-22T03:35:12;4.06;88.43
69162;DHT22;56269;51.738;21.652;2023-12-22T03:37:38;4.05;88.67
69162;DHT22;56269;51.738;21.652;2023-12-22T03:40:05;4.05;88.85
69162;DHT22;56269;51.738;21.652;2023-12-22T03:42:31;4.02;88.68
69162;DHT22;56269;51.738;21.652;2023-12-22T03:44:57;4.04;88.64
69162;DHT22;56269;51.738;21.652;2023-12-22T03:47:23;4.08;88.06
69162;DHT22;56269;51.738;21.652;2023-12-22T03:49:49;4.09;88.53
69162;DHT22;56269;51.738;21.652;2023-12-22T03:52:15;4.08;88.33
69162;DHT22;56269;51.738;21.652;2023-12-22T03:54:42;4.09;87.87
69162;DHT22;56269;51.738;21.652;2023-12-22T03:57:08;4.09;87.85
69162;DHT22;56269;51.738;21.652;2023-12-22T03:59:34;4.04;88.36
69162;DHT22;56269;51.738;21.652;2023-12-22T04:02:00;4.08;88.03
69162;DHT22;56269;51.738;21.652;2023-12-22T04:04:27;4.05;88.27
69162;DHT22;56269;51.738;21.652;2023-12-22T04:06:54;4.04;88.09
69162;DHT22;56269;51.738;21.652;2023-12-22T04:09:20;4.04;88.68
69162;DHT22;56269;51.738;21.652;2023-12-22T04:11:46;4.01;88.14
69162;DHT22;56269;51.738;21.652;2023-12-22T04:14:12;3.97;88.41
69162;DHT22;56269;51.738;21.652;2023-12-22T04:16:38;3.94;88.10
69162;DHT22;56269;51.738;21.652;2023-12-22T04:19:05;3.94;88.41
69162;DHT22;56269;51.738;21.652;2023-12-22T04:21:31;3.92;87.89
69162;DHT22;56269;51.738;21.652;2023-12-22T04:23:57;3.94;88.07
69162;DHT22;56269;51.738;21.652;2023-12-22T04:26:23;3.87;88.54
69162;DHT22;56269;51.738;21.652;2023-12-22T04:28:49;3.94;87.38
69162;DHT22;56269;51.738;21.652;2023-12-22T04:31:15;3.95;87.37
69162;DHT22;56269;51.738;21.652;2023-12-22T04:33:42;3.94;87.44
69162;DHT22;56269;51.738;21.652;2023-12-22T04:36:07;3.87;87.46
69162;DHT22;56269;51.738;21.652;2023-12-22T04:38:34;3.91;86.78
69162;DHT22;56269;51.738;21.652;2023-12-22T04:41:00;3.91;87.11
69162;DHT22;56269;51.738;21.652;2023-12-22T04:43:26;3.88;87.34
69162;DHT22;56269;51.738;21.652;2023-12-22T04:45:52;3.84;87.51
69162;DHT22;56269;51.738;21.652;2023-12-22T04:48:18;3.92;86.86
69162;DHT22;56269;51.738;21.652;2023-12-22T04:50:44;3.87;87.11
69162;DHT22;56269;51.738;21.652;2023-12-22T04:53:11;3.88;87.14
69162;DHT22;56269;51.738;21.652;2023-12-22T04:55:37;3.81;87.76
69162;DHT22;56269;51.738;21.652;2023-12-22T04:58:03;3.77;87.83
69162;DHT22;56269;51.738;21.652;2023-12-22T05:00:29;3.69;88.88
69162;DHT22;56269;51.738;21.652;2023-12-22T05:02:55;3.67;88.80
69162;DHT22;56269;51.738;21.652;2023-12-22T05:05:21;3.64;88.57
69162;DHT22;56269;51.738;21.652;2023-12-22T05:07:47;3.56;89.25
69162;DHT22;56269;51.738;21.652;2023-12-22T05:10:14;3.46;90.22
69162;DHT22;56269;51.738;21.652;2023-12-22T05:12:40;3.43;90.32
69162;DHT22;56269;51.738;21.652;2023-12-22T05:15:07;3.37;90.37
69162;DHT22;56269;51.738;21.652;2023-12-22T05:17:33;3.34;90.50
69162;DHT22;56269;51.738;21.652;2023-12-22T05:19:59;3.29;90.81
69162;DHT22;56269;51.738;21.652;2023-12-22T05:22:25;3.29;90.51
69162;DHT22;56269;51.738;21.652;2023-12-22T05:24:51;3.27;90.88
69162;DHT22;56269;51.738;21.652;2023-12-22T05:27:18;3.29;90.86
69162;DHT22;56269;51.738;21.652;2023-12-22T05:29:44;3.23;91.29
69162;DHT22;56269;51.738;21.652;2023-12-22T05:32:10;3.22;91.07
69162;DHT22;56269;51.738;21.652;2023-12-22T05:34:36;3.18;91.39
69162;DHT22;56269;51.738;21.652;2023-12-22T05:37:03;3.10;91.89
69162;DHT22;56269;51.738;21.652;2023-12-22T05:39:29;3.09;92.07
69162;DHT22;56269;51.738;21.652;2023-12-22T05:41:55;3.08;91.96
69162;DHT22;56269;51.738;21.652;2023-12-22T05:44:21;3.08;91.80
69162;DHT22;56269;51.738;21.652;2023-12-22T05:46:49;3.08;91.61
69162;DHT22;56269;51.738;21.652;2023-12-22T05:49:16;3.12;91.55
69162;DHT22;56269;51.738;21.652;2023-12-22T05:51:42;3.10;91.60
69162;DHT22;56269;51.738;21.652;2023-12-22T05:54:08;3.09;91.37
69162;DHT22;56269;51.738;21.652;2023-12-22T05:56:36;3.08;91.26
69162;DHT22;56269;51.738;21.652;2023-12-22T05:59:02;3.10;91.43
69162;DHT22;56269;51.738;21.652;2023-12-22T06:01:29;3.06;91.63
69162;DHT22;56269;51.738;21.652;2023-12-22T06:03:55;3.05;91.56
69162;DHT22;56269;51.738;21.652;2023-12-22T06:06:22;3.00;91.76
69162;DHT22;56269;51.738;21.652;2023-12-22T06:08:48;2.96;92.27
69162;DHT22;56269;51.738;21.652;2023-12-22T06:11:16;2.95;91.88
69162;DHT22;56269;51.738;21.652;2023-12-22T06:13:42;2.91;92.41
69162;DHT22;56269;51.738;21.652;2023-12-22T06:16:15;2.96;92.10
69162;DHT22;56269;51.738;21.652;2023-12-22T06:18:41;2.96;91.82
69162;DHT22;56269;51.738;21.652;2023-12-22T06:21:09;2.91;92.18
69162;DHT22;56269;51.738;21.652;2023-12-22T06:23:36;2.92;91.66
69162;DHT22;56269;51.738;21.652;2023-12-22T06:26:08;2.92;91.96
69162;DHT22;56269;51.738;21.652;2023-12-22T06:28:34;2.91;91.59
69162;DHT22;56269;51.738;21.652;2023-12-22T06:31:01;2.87;91.84
69162;DHT22;56269;51.738;21.652;2023-12-22T06:33:29;2.84;91.74
69162;DHT22;56269;51.738;21.652;2023-12-22T06:35:55;2.88;91.18
69162;DHT22;56269;51.738;21.652;2023-12-22T06:38:22;2.88;90.75
69162;DHT22;56269;51.738;21.652;2023-12-22T06:40:48;2.79;91.44
69162;DHT22;56269;51.738;21.652;2023-12-22T06:43:15;2.74;91.40
69162;DHT22;56269;51.738;21.652;2023-12-22T06:45:41;2.77;91.17
69162;DHT22;56269;51.738;21.652;2023-12-22T06:48:07;2.82;91.07
69162;DHT22;56269;51.738;21.652;2023-12-22T06:50:35;2.81;90.77
69162;DHT22;56269;51.738;21.652;2023-12-22T06:53:03;2.81;90.72
69162;DHT22;56269;51.738;21.652;2023-12-22T06:55:29;2.85;90.44
69162;DHT22;56269;51.738;21.652;2023-12-22T06:57:56;2.92;89.95
69162;DHT22;56269;51.738;21.652;2023-12-22T07:00:22;2.92;89.92
69162;DHT22;56269;51.738;21.652;2023-12-22T07:02:48;2.88;89.98
69162;DHT22;56269;51.738;21.652;2023-12-22T07:07:49;3.00;89.01
69162;DHT22;56269;51.738;21.652;2023-12-22T07:10:16;3.05;88.61
69162;DHT22;56269;51.738;21.652;2023-12-22T07:12:42;3.09;88.14
69162;DHT22;56269;51.738;21.652;2023-12-22T07:15:09;3.16;87.35
69162;DHT22;56269;51.738;21.652;2023-12-22T07:17:37;3.19;86.82
69162;DHT22;56269;51.738;21.652;2023-12-22T07:20:03;3.20;86.76
69162;DHT22;56269;51.738;21.652;2023-12-22T07:22:30;3.20;86.44
69162;DHT22;56269;51.738;21.652;2023-12-22T07:24:56;3.29;85.91
69162;DHT22;56269;51.738;21.652;2023-12-22T07:27:22;3.27;85.61
69162;DHT22;56269;51.738;21.652;2023-12-22T07:29:48;3.33;85.06
69162;DHT22;56269;51.738;21.652;2023-12-22T07:32:14;3.27;85.14
69162;DHT22;56269;51.738;21.652;2023-12-22T07:34:40;3.34;83.98
69162;DHT22;56269;51.738;21.652;2023-12-22T07:37:07;3.34;84.38
69162;DHT22;56269;51.738;21.652;2023-12-22T07:39:33;3.32;84.35
69162;DHT22;56269;51.738;21.652;2023-12-22T07:42:00;3.29;84.52
69162;DHT22;56269;51.738;21.652;2023-12-22T07:44:26;3.32;83.54
69162;DHT22;56269;51.738;21.652;2023-12-22T07:46:59;3.33;83.32
69162;DHT22;56269;51.738;21.652;2023-12-22T07:49:25;3.34;82.89
69162;DHT22;56269;51.738;21.652;2023-12-22T07:51:52;3.29;83.14
69162;DHT22;56269;51.738;21.652;2023-12-22T07:54:18;3.27;83.59
69162;DHT22;56269;51.738;21.652;2023-12-22T07:56:45;3.32;83.04
69162;DHT22;56269;51.738;21.652;2023-12-22T07:59:11;3.36;82.09
69162;DHT22;56269;51.738;21.652;2023-12-22T08:01:37;3.36;82.20
69162;DHT22;56269;51.738;21.652;2023-12-22T08:04:03;3.39;81.66
69162;DHT22;56269;51.738;21.652;2023-12-22T08:06:30;3.36;82.52
69162;DHT22;56269;51.738;21.652;2023-12-22T08:08:56;3.30;82.70
69162;DHT22;56269;51.738;21.652;2023-12-22T08:11:23;1.69;90.65
69162;DHT22;56269;51.738;21.652;2023-12-22T08:13:51;1.14;94.84
69162;DHT22;56269;51.738;21.652;2023-12-22T08:16:17;0.93;94.90
69162;DHT22;56269;51.738;21.652;2023-12-22T08:18:43;0.79;96.05
69162;DHT22;56269;51.738;21.652;2023-12-22T08:21:10;0.66;95.43
69162;DHT22;56269;51.738;21.652;2023-12-22T08:23:36;0.67;94.89
69162;DHT22;56269;51.738;21.652;2023-12-22T08:26:02;0.70;94.10
69162;DHT22;56269;51.738;21.652;2023-12-22T08:28:28;0.77;93.84
69162;DHT22;56269;51.738;21.652;2023-12-22T08:30:54;0.83;92.44
69162;DHT22;56269;51.738;21.652;2023-12-22T08:33:20;0.87;93.24
69162;DHT22;56269;51.738;21.652;2023-12-22T08:35:47;0.88;92.26
69162;DHT22;56269;51.738;21.652;2023-12-22T08:38:13;1.01;92.41
69162;DHT22;56269;51.738;21.652;2023-12-22T08:40:39;1.14;91.83
69162;DHT22;56269;51.738;21.652;2023-12-22T08:43:05;1.32;91.36
69162;DHT22;56269;51.738;21.652;2023-12-22T08:45:32;1.55;90.59
69162;DHT22;56269;51.738;21.652;2023-12-22T08:47:58;1.76;90.61
69162;DHT22;56269;51.738;21.652;2023-12-22T08:50:25;1.96;89.86
69162;DHT22;56269;51.738;21.652;2023-12-22T08:52:52;2.16;89.42
69162;DHT22;56269;51.738;21.652;2023-12-22T08:55:18;2.34;88.71
69162;DHT22;56269;51.738;21.652;2023-12-22T08:57:44;2.51;88.66
69162;DHT22;56269;51.738;21.652;2023-12-22T09:00:11;2.64;87.55
69162;DHT22;56269;51.738;21.652;2023-12-22T09:02:37;2.85;86.88
69162;DHT22;56269;51.738;21.652;2023-12-22T09:05:04;2.96;85.82
69162;DHT22;56269;51.738;21.652;2023-12-22T09:07:31;3.06;85.77
69162;DHT22;56269;51.738;21.652;2023-12-22T09:09:57;3.27;84.22
69162;DHT22;56269;51.738;21.652;2023-12-22T09:12:23;3.46;83.09
69162;DHT22;56269;51.738;21.652;2023-12-22T09:14:50;3.49;81.72
69162;DHT22;56269;51.738;21.652;2023-12-22T09:17:16;3.67;83.02
69162;DHT22;56269;51.738;21.652;2023-12-22T09:19:42;3.80;82.25
69162;DHT22;56269;51.738;21.652;2023-12-22T09:22:08;3.85;81.05
69162;DHT22;56269;51.738;21.652;2023-12-22T09:24:35;4.02;81.15
69162;DHT22;56269;51.738;21.652;2023-12-22T09:27:01;4.02;79.88
69162;DHT22;56269;51.738;21.652;2023-12-22T09:29:29;4.08;79.78
69162;DHT22;56269;51.738;21.652;2023-12-22T09:31:56;4.08;80.79
69162;DHT22;56269;51.738;21.652;2023-12-22T09:34:22;3.97;80.78
69162;DHT22;56269;51.738;21.652;2023-12-22T09:36:49;4.09;80.80
69162;DHT22;56269;51.738;21.652;2023-12-22T09:39:15;4.36;79.75
69162;DHT22;56269;51.738;21.652;2023-12-22T09:41:48;4.21;78.17
69162;DHT22;56269;51.738;21.652;2023-12-22T09:44:20;4.29;78.61
69162;DHT22;56269;51.738;21.652;2023-12-22T09:46:50;4.25;78.89
69162;DHT22;56269;51.738;21.652;2023-12-22T09:49:18;4.05;78.51
69162;DHT22;56269;51.738;21.652;2023-12-22T09:51:46;4.18;79.44
69162;DHT22;56269;51.738;21.652;2023-12-22T09:54:13;4.33;78.78
69162;DHT22;56269;51.738;21.652;2023-12-22T09:56:40;4.33;79.07
69162;DHT22;56269;51.738;21.652;2023-12-22T09:59:12;4.43;77.60
69162;DHT22;56269;51.738;21.652;2023-12-22T10:01:43;4.38;77.85
69162;DHT22;56269;51.738;21.652;2023-12-22T10:04:12;4.31;77.80
69162;DHT22;56269;51.738;21.652;2023-12-22T10:06:38;4.25;77.85
69162;DHT22;56269;51.738;21.652;2023-12-22T10:09:06;4.50;77.57
69162;DHT22;56269;51.738;21.652;2023-12-22T10:11:36;4.62;78.09
69162;DHT22;56269;51.738;21.652;2023-12-22T10:14:05;4.60;77.48
69162;DHT22;56269;51.738;21.652;2023-12-22T10:16:32;4.74;78.21
69162;DHT22;56269;51.738;21.652;2023-12-22T10:18:59;4.79;77.64
69162;DHT22;56269;51.738;21.652;2023-12-22T10:21:26;4.74;76.26
69162;DHT22;56269;51.738;21.652;2023-12-22T10:23:53;4.87;76.17
69162;DHT22;56269;51.738;21.652;2023-12-22T10:26:19;5.03;77.07
69162;DHT22;56269;51.738;21.652;2023-12-22T10:28:47;4.96;76.98
69162;DHT22;56269;51.738;21.652;2023-12-22T10:31:14;5.14;76.13
69162;DHT22;56269;51.738;21.652;2023-12-22T10:33:43;5.00;75.34
69162;DHT22;56269;51.738;21.652;2023-12-22T10:36:09;5.04;75.60
69162;DHT22;56269;51.738;21.652;2023-12-22T10:38:36;5.08;76.28
69162;DHT22;56269;51.738;21.652;2023-12-22T10:41:03;4.84;76.39
69162;DHT22;56269;51.738;21.652;2023-12-22T10:43:30;4.42;77.03
69162;DHT22;56269;51.738;21.652;2023-12-22T10:45:57;4.33;78.76
69162;DHT22;56269;51.738;21.652;2023-12-22T10:48:24;4.23;78.93
69162;DHT22;56269;51.738;21.652;2023-12-22T10:50:50;3.91;80.17
69162;DHT22;56269;51.738;21.652;2023-12-22T10:53:17;3.49;83.19
69162;DHT22;56269;51.738;21.652;2023-12-22T10:55:46;3.26;84.20
69162;DHT22;56269;51.738;21.652;2023-12-22T10:58:13;2.99;87.55
69162;DHT22;56269;51.738;21.652;2023-12-22T11:00:40;2.64;90.13
69162;DHT22;56269;51.738;21.652;2023-12-22T11:03:13;2.44;91.00
69162;DHT22;56269;51.738;21.652;2023-12-22T11:05:45;2.37;91.90
69162;DHT22;56269;51.738;21.652;2023-12-22T11:08:13;2.45;90.93
69162;DHT22;56269;51.738;21.652;2023-12-22T11:10:42;2.61;90.82
69162;DHT22;56269;51.738;21.652;2023-12-22T11:13:12;2.77;90.64
69162;DHT22;56269;51.738;21.652;2023-12-22T11:15:39;2.88;89.22
69162;DHT22;56269;51.738;21.652;2023-12-22T11:18:07;3.00;87.92
69162;DHT22;56269;51.738;21.652;2023-12-22T11:20:35;3.12;87.34
69162;DHT22;56269;51.738;21.652;2023-12-22T11:23:02;3.26;85.22
69162;DHT22;56269;51.738;21.652;2023-12-22T11:25:30;3.29;85.32
69162;DHT22;56269;51.738;21.652;2023-12-22T11:27:59;3.36;85.49
69162;DHT22;56269;51.738;21.652;2023-12-22T11:30:25;3.32;85.62
69162;DHT22;56269;51.738;21.652;2023-12-22T11:32:53;2.82;89.48
69162;DHT22;56269;51.738;21.652;2023-12-22T11:35:23;1.77;91.14
69162;DHT22;56269;51.738;21.652;2023-12-22T11:37:50;0.70;97.69
69162;DHT22;56269;51.738;21.652;2023-12-22T11:40:16;0.45;98.91
69162;DHT22;56269;51.738;21.652;2023-12-22T11:42:46;0.25;99.38
69162;DHT22;56269;51.738;21.652;2023-12-22T11:45:14;0.13;99.55
69162;DHT22;56269;51.738;21.652;2023-12-22T11:47:42;0.06;99.71
69162;DHT22;56269;51.738;21.652;2023-12-22T11:50:09;0.03;99.99
69162;DHT22;56269;51.738;21.652;2023-12-22T11:52:36;0.01;99.99
69162;DHT22;56269;51.738;21.652;2023-12-22T11:55:03;-0.03;99.99
69162;DHT22;56269;51.738;21.652;2023-12-22T11:57:34;-0.02;99.99
69162;DHT22;56269;51.738;21.652;2023-12-22T12:00:01;0.26;99.90
69162;DHT22;56269;51.738;21.652;2023-12-22T12:02:30;0.56;98.55
69162;DHT22;56269;51.738;21.652;2023-12-22T12:04:58;0.83;97.61
69162;DHT22;56269;51.738;21.652;2023-12-22T12:07:47;1.36;96.68
69162;DHT22;56269;51.738;21.652;2023-12-22T12:13:07;1.65;95.66
69162;DHT22;56269;51.738;21.652;2023-12-22T12:15:34;1.80;95.23
69162;DHT22;56269;51.738;21.652;2023-12-22T12:18:01;1.76;95.31
69162;DHT22;56269;51.738;21.652;2023-12-22T12:20:28;1.85;95.10
69162;DHT22;56269;51.738;21.652;2023-12-22T12:22:55;1.48;95.89
69162;DHT22;56269;51.738;21.652;2023-12-22T12:25:28;1.20;96.81
69162;DHT22;56269;51.738;21.652;2023-12-22T12:28:05;1.01;97.31
69162;DHT22;56269;51.738;21.652;2023-12-22T12:30:32;0.80;97.79
69162;DHT22;56269;51.738;21.652;2023-12-22T12:32:59;0.67;98.28
69162;DHT22;56269;51.738;21.652;2023-12-22T12:35:32;0.54;98.83
69162;DHT22;56269;51.738;21.652;2023-12-22T12:38:03;0.52;99.10
69162;DHT22;56269;51.738;21.652;2023-12-22T12:40:30;0.67;99.09
69162;DHT22;56269;51.738;21.652;2023-12-22T12:43:02;0.76;98.41
69162;DHT22;56269;51.738;21.652;2023-12-22T12:45:28;0.79;98.49
69162;DHT22;56269;51.738;21.652;2023-12-22T12:47:59;0.79;98.57
69162;DHT22;56269;51.738;21.652;2023-12-22T12:50:28;0.91;98.34
69162;DHT22;56269;51.738;21.652;2023-12-22T12:52:55;0.98;98.22
69162;DHT22;56269;51.738;21.652;2023-12-22T12:55:23;1.20;98.08
69162;DHT22;56269;51.738;21.652;2023-12-22T12:57:51;1.45;97.34
69162;DHT22;56269;51.738;21.652;2023-12-22T13:00:28;1.52;97.09
69162;DHT22;56269;51.738;21.652;2023-12-22T13:02:56;1.63;96.89
69162;DHT22;56269;51.738;21.652;2023-12-22T13:05:23;1.48;96.95
69162;DHT22;56269;51.738;21.652;2023-12-22T13:07:50;1.28;97.41
69162;DHT22;56269;51.738;21.652;2023-12-22T13:10:24;1.21;97.57
69162;DHT22;56269;51.738;21.652;2023-12-22T13:12:51;1.04;97.93
69162;DHT22;56269;51.738;21.652;2023-12-22T13:15:23;0.98;98.10
69162;DHT22;56269;51.738;21.652;2023-12-22T13:17:51;0.97;98.12
69162;DHT22;56269;51.738;21.652;2023-12-22T13:20:18;1.00;98.24
69162;DHT22;56269;51.738;21.652;2023-12-22T13:22:45;1.01;98.00
69162;DHT22;56269;51.738;21.652;2023-12-22T13:25:11;1.05;97.61
69162;DHT22;56269;51.738;21.652;2023-12-22T13:27:48;1.07;97.94
69162;DHT22;56269;51.738;21.652;2023-12-22T13:30:15;1.09;97.81
69162;DHT22;56269;51.738;21.652;2023-12-22T13:32:41;1.05;98.11
69162;DHT22;56269;51.738;21.652;2023-12-22T13:35:08;1.05;98.20
69162;DHT22;56269;51.738;21.652;2023-12-22T13:37:40;1.01;98.30
69162;DHT22;56269;51.738;21.652;2023-12-22T13:40:08;0.97;98.69
69162;DHT22;56269;51.738;21.652;2023-12-22T13:42:35;0.94;98.84
69162;DHT22;56269;51.738;21.652;2023-12-22T13:45:03;0.91;98.88
69162;DHT22;56269;51.738;21.652;2023-12-22T13:47:33;0.94;99.05
69162;DHT22;56269;51.738;21.652;2023-12-22T13:50:00;0.90;99.04
69162;DHT22;56269;51.738;21.652;2023-12-22T13:54:53;0.84;99.28
69162;DHT22;56269;51.738;21.652;2023-12-22T13:57:23;0.85;99.47
69162;DHT22;56269;51.738;21.652;2023-12-22T13:59:49;0.85;99.62
69162;DHT22;56269;51.738;21.652;2023-12-22T14:02:22;0.81;99.74
69162;DHT22;56269;51.738;21.652;2023-12-22T14:04:49;0.77;99.99
69162;DHT22;56269;51.738;21.652;2023-12-22T14:07:17;0.74;99.99
69162;DHT22;56269;51.738;21.652;2023-12-22T14:09:43;0.69;99.99
69162;DHT22;56269;51.738;21.652;2023-12-22T14:12:10;0.73;99.99
69162;DHT22;56269;51.738;21.652;2023-12-22T14:14:36;0.69;99.99
69162;DHT22;56269;51.738;21.652;2023-12-22T14:17:02;0.70;99.99
69162;DHT22;56269;51.738;21.652;2023-12-22T14:19:28;0.66;99.99
69162;DHT22;56269;51.738;21.652;2023-12-22T14:21:54;0.64;99.99
69162;DHT22;56269;51.738;21.652;2023-12-22T14:24:20;0.66;99.99
69162;DHT22;56269;51.738;21.652;2023-12-22T14:26:55;0.67;99.99
69162;DHT22;56269;51.738;21.652;2023-12-22T14:29:22;0.67;99.99
69162;DHT22;56269;51.738;21.652;2023-12-22T14:31:52;0.72;99.99
69162;DHT22;56269;51.738;21.652;2023-12-22T14:34:18;0.72;99.99
69162;DHT22;56269;51.738;21.652;2023-12-22T14:36:44;0.73;99.99
69162;DHT22;56269;51.738;21.652;2023-12-22T14:39:12;0.74;99.99
69162;DHT22;56269;51.738;21.652;2023-12-22T14:41:40;0.76;99.99
69162;DHT22;56269;51.738;21.652;2023-12-22T14:44:08;0.79;99.99
69162;DHT22;56269;51.738;21.652;2023-12-22T14:46:39;0.77;99.99
69162;DHT22;56269;51.738;21.652;2023-12-22T14:49:08;0.74;99.99
69162;DHT22;56269;51.738;21.652;2023-12-22T14:51:38;0.80;99.99
69162;DHT22;56269;51.738;21.652;2023-12-22T14:54:09;0.85;99.99
69162;DHT22;56269;51.738;21.652;2023-12-22T14:56:39;0.81;99.99
69162;DHT22;56269;51.738;21.652;2023-12-22T14:59:11;0.90;99.84
69162;DHT22;56269;51.738;21.652;2023-12-22T15:01:38;0.85;99.94
69162;DHT22;56269;51.738;21.652;2023-12-22T15:04:05;0.85;99.99
69162;DHT22;56269;51.738;21.652;2023-12-22T15:06:32;0.90;99.84
69162;DHT22;56269;51.738;21.652;2023-12-22T15:09:00;0.91;99.69
69162;DHT22;56269;51.738;21.652;2023-12-22T15:11:27;0.94;99.30
69162;DHT22;56269;51.738;21.652;2023-12-22T15:13:53;0.93;99.67
69162;DHT22;56269;51.738;21.652;2023-12-22T15:16:19;0.94;99.41
69162;DHT22;56269;51.738;21.652;2023-12-22T15:18:45;0.93;99.48
69162;DHT22;56269;51.738;21.652;2023-12-22T15:21:20;0.94;99.48
69162;DHT22;56269;51.738;21.652;2023-12-22T15:23:47;0.94;99.28
69162;DHT22;56269;51.738;21.652;2023-12-22T15:26:25;0.93;99.44
69162;DHT22;56269;51.738;21.652;2023-12-22T15:28:52;0.93;99.48
69162;DHT22;56269;51.738;21.652;2023-12-22T15:31:19;0.84;99.76
69162;DHT22;56269;51.738;21.652;2023-12-22T15:33:45;0.88;99.64
69162;DHT22;56269;51.738;21.652;2023-12-22T15:36:17;0.83;99.80
69162;DHT22;56269;51.738;21.652;2023-12-22T15:38:43;0.76;99.99